sensor_id;sensor_type;location;lat;lon;timestamp;temperature;humidity
11043;DHT22;5574;48.786;10.120;2023-07-24T00:00:32;20.30;88.50
11043;DHT22;5574;48.786;10.120;2023-07-24T00:03:00;20.30;88.90
11043;DHT22;5574;48.786;10.120;2023-07-24T00:05:27;20.20;88.00
11043;DHT22;5574;48.786;10.120;2023-07-24T00:07:55;20.10;88.20
11043;DHT22;5574;48.786;10.120;2023-07-24T00:10:22;20.10;87.40
11043;DHT22;5574;48.786;10.120;2023-07-24T00:12:48;20.10;89.30
11043;DHT22;5574;48.786;10.120;2023-07-24T00:15:15;20.00;91.50
11043;DHT22;5574;48.786;10.120;2023-07-24T00:17:42;19.90;90.50
11043;DHT22;5574;48.786;10.120;2023-07-24T00:20:09;19.90;92.10
11043;DHT22;5574;48.786;10.120;2023-07-24T00:22:36;19.90;93.30
11043;DHT22;5574;48.786;10.120;2023-07-24T00:25:04;19.90;92.40
11043;DHT22;5574;48.786;10.120;2023-07-24T00:27:31;19.90;92.50
11043;DHT22;5574;48.786;10.120;2023-07-24T00:29:58;19.80;92.60
11043;DHT22;5574;48.786;10.120;2023-07-24T00:32:25;19.80;92.50
11043;DHT22;5574;48.786;10.120;2023-07-24T00:34:51;19.80;93.10
11043;DHT22;5574;48.786;10.120;2023-07-24T00:37:18;19.80;93.50
11043;DHT22;5574;48.786;10.120;2023-07-24T00:39:45;19.70;93.10
11043;DHT22;5574;48.786;10.120;2023-07-24T00:42:13;19.70;94.00
11043;DHT22;5574;48.786;10.120;2023-07-24T00:44:39;19.60;93.20
11043;DHT22;5574;48.786;10.120;2023-07-24T00:47:06;19.60;93.70
11043;DHT22;5574;48.786;10.120;2023-07-24T00:49:33;19.50;93.80
11043;DHT22;5574;48.786;10.120;2023-07-24T00:52:00;19.40;93.80
11043;DHT22;5574;48.786;10.120;2023-07-24T00:54:31;19.30;93.90
11043;DHT22;5574;48.786;10.120;2023-07-24T00:56:59;19.30;94.40
11043;DHT22;5574;48.786;10.120;2023-07-24T00:59:27;19.10;93.80
11043;DHT22;5574;48.786;10.120;2023-07-24T01:01:54;19.10;94.40
11043;DHT22;5574;48.786;10.120;2023-07-24T01:04:22;19.10;94.40
11043;DHT22;5574;48.786;10.120;2023-07-24T01:06:49;19.20;94.60
11043;DHT22;5574;48.786;10.120;2023-07-24T01:09:15;19.20;94.10
11043;DHT22;5574;48.786;10.120;2023-07-24T01:11:46;19.10;94.10
11043;DHT22;5574;48.786;10.120;2023-07-24T01:14:20;19.00;94.10
11043;DHT22;5574;48.786;10.120;2023-07-24T01:16:49;18.90;94.10
11043;DHT22;5574;48.786;10.120;2023-07-24T01:19:33;18.90;95.00
11043;DHT22;5574;48.786;10.120;2023-07-24T01:22:07;18.80;94.70
11043;DHT22;5574;48.786;10.120;2023-07-24T01:24:42;18.80;94.80
11043;DHT22;5574;48.786;10.120;2023-07-24T01:27:20;18.80;94.60
11043;DHT22;5574;48.786;10.120;2023-07-24T01:29:47;18.90;94.00
11043;DHT22;5574;48.786;10.120;2023-07-24T01:32:13;18.80;94.20
11043;DHT22;5574;48.786;10.120;2023-07-24T01:34:40;18.70;94.40
11043;DHT22;5574;48.786;10.120;2023-07-24T01:37:07;18.80;94.60
11043;DHT22;5574;48.786;10.120;2023-07-24T01:39:35;18.80;94.70
11043;DHT22;5574;48.786;10.120;2023-07-24T01:42:03;18.80;94.40
11043;DHT22;5574;48.786;10.120;2023-07-24T01:44:31;18.70;94.50
11043;DHT22;5574;48.786;10.120;2023-07-24T01:46:58;18.80;94.70
11043;DHT22;5574;48.786;10.120;2023-07-24T01:49:24;18.80;94.70
11043;DHT22;5574;48.786;10.120;2023-07-24T01:51:51;18.80;94.70
11043;DHT22;5574;48.786;10.120;2023-07-24T01:54:18;18.80;94.20
11043;DHT22;5574;48.786;10.120;2023-07-24T01:56:44;18.80;94.40
11043;DHT22;5574;48.786;10.120;2023-07-24T01:59:11;18.70;94.60
11043;DHT22;5574;48.786;10.120;2023-07-24T02:01:39;18.70;94.50
11043;DHT22;5574;48.786;10.120;2023-07-24T02:04:06;18.60;94.40
11043;DHT22;5574;48.786;10.120;2023-07-24T02:06:33;18.70;94.50
11043;DHT22;5574;48.786;10.120;2023-07-24T02:08:59;18.70;94.70
11043;DHT22;5574;48.786;10.120;2023-07-24T02:11:26;18.70;94.30
11043;DHT22;5574;48.786;10.120;2023-07-24T02:13:53;18.80;94.50
11043;DHT22;5574;48.786;10.120;2023-07-24T02:16:19;18.80;94.30
11043;DHT22;5574;48.786;10.120;2023-07-24T02:18:47;18.80;94.30
11043;DHT22;5574;48.786;10.120;2023-07-24T02:21:14;18.80;94.10
11043;DHT22;5574;48.786;10.120;2023-07-24T02:23:41;18.80;94.30
11043;DHT22;5574;48.786;10.120;2023-07-24T02:26:07;18.80;94.20
11043;DHT22;5574;48.786;10.120;2023-07-24T02:28:34;18.80;94.30
11043;DHT22;5574;48.786;10.120;2023-07-24T02:31:01;18.70;94.70
11043;DHT22;5574;48.786;10.120;2023-07-24T02:33:27;18.70;94.80
11043;DHT22;5574;48.786;10.120;2023-07-24T02:35:55;18.80;94.80
11043;DHT22;5574;48.786;10.120;2023-07-24T02:38:22;18.80;94.40
11043;DHT22;5574;48.786;10.120;2023-07-24T02:40:49;18.80;94.40
11043;DHT22;5574;48.786;10.120;2023-07-24T02:43:15;18.80;94.20
11043;DHT22;5574;48.786;10.120;2023-07-24T02:45:42;18.80;94.40
11043;DHT22;5574;48.786;10.120;2023-07-24T02:48:09;18.80;94.10
11043;DHT22;5574;48.786;10.120;2023-07-24T02:50:35;18.80;94.20
11043;DHT22;5574;48.786;10.120;2023-07-24T02:53:03;18.70;94.60
11043;DHT22;5574;48.786;10.120;2023-07-24T02:55:30;18.70;95.80
11043;DHT22;5574;48.786;10.120;2023-07-24T02:57:57;18.70;95.00
11043;DHT22;5574;48.786;10.120;2023-07-24T03:00:24;18.70;95.20
11043;DHT22;5574;48.786;10.120;2023-07-24T03:02:50;18.70;95.70
11043;DHT22;5574;48.786;10.120;2023-07-24T03:05:17;18.60;94.90
11043;DHT22;5574;48.786;10.120;2023-07-24T03:07:44;18.60;95.70
11043;DHT22;5574;48.786;10.120;2023-07-24T03:10:12;18.40;96.40
11043;DHT22;5574;48.786;10.120;2023-07-24T03:12:38;18.30;97.00
11043;DHT22;5574;48.786;10.120;2023-07-24T03:15:06;18.20;96.90
11043;DHT22;5574;48.786;10.120;2023-07-24T03:17:33;18.20;96.80
11043;DHT22;5574;48.786;10.120;2023-07-24T03:20:08;18.30;97.40
11043;DHT22;5574;48.786;10.120;2023-07-24T03:22:35;18.20;96.00
11043;DHT22;5574;48.786;10.120;2023-07-24T03:25:01;18.20;96.00
11043;DHT22;5574;48.786;10.120;2023-07-24T03:27:29;18.10;95.90
11043;DHT22;5574;48.786;10.120;2023-07-24T03:29:56;18.10;96.30
11043;DHT22;5574;48.786;10.120;2023-07-24T03:32:23;18.10;96.00
11043;DHT22;5574;48.786;10.120;2023-07-24T03:34:49;18.10;96.00
11043;DHT22;5574;48.786;10.120;2023-07-24T03:37:16;18.00;96.10
11043;DHT22;5574;48.786;10.120;2023-07-24T03:39:43;18.00;96.40
11043;DHT22;5574;48.786;10.120;2023-07-24T03:42:10;17.90;96.20
11043;DHT22;5574;48.786;10.120;2023-07-24T03:44:39;18.00;96.20
11043;DHT22;5574;48.786;10.120;2023-07-24T03:47:06;18.00;96.70
11043;DHT22;5574;48.786;10.120;2023-07-24T03:49:33;18.00;96.30
11043;DHT22;5574;48.786;10.120;2023-07-24T03:52:00;18.00;96.20
11043;DHT22;5574;48.786;10.120;2023-07-24T03:54:27;18.00;96.40
11043;DHT22;5574;48.786;10.120;2023-07-24T03:56:53;18.00;96.30
11043;DHT22;5574;48.786;10.120;2023-07-24T03:59:20;18.00;96.40
11043;DHT22;5574;48.786;10.120;2023-07-24T04:01:48;18.00;96.40
11043;DHT22;5574;48.786;10.120;2023-07-24T04:04:15;17.90;96.40
11043;DHT22;5574;48.786;10.120;2023-07-24T04:06:41;17.80;96.50
11043;DHT22;5574;48.786;10.120;2023-07-24T04:09:08;17.80;96.70
11043;DHT22;5574;48.786;10.120;2023-07-24T04:11:39;17.70;96.70
11043;DHT22;5574;48.786;10.120;2023-07-24T04:14:06;17.70;96.90
11043;DHT22;5574;48.786;10.120;2023-07-24T04:16:33;17.70;96.70
11043;DHT22;5574;48.786;10.120;2023-07-24T04:19:01;17.80;96.50
11043;DHT22;5574;48.786;10.120;2023-07-24T04:21:27;17.80;96.50
11043;DHT22;5574;48.786;10.120;2023-07-24T04:23:54;17.70;96.70
11043;DHT22;5574;48.786;10.120;2023-07-24T04:26:21;17.70;96.70
11043;DHT22;5574;48.786;10.120;2023-07-24T04:28:47;17.70;96.70
11043;DHT22;5574;48.786;10.120;2023-07-24T04:31:14;17.80;96.70
11043;DHT22;5574;48.786;10.120;2023-07-24T04:33:41;17.80;96.70
11043;DHT22;5574;48.786;10.120;2023-07-24T04:36:09;17.70;96.60
11043;DHT22;5574;48.786;10.120;2023-07-24T04:38:35;17.80;96.70
11043;DHT22;5574;48.786;10.120;2023-07-24T04:41:02;17.70;96.50
11043;DHT22;5574;48.786;10.120;2023-07-24T04:43:29;17.70;97.00
11043;DHT22;5574;48.786;10.120;2023-07-24T04:45:55;17.80;97.10
11043;DHT22;5574;48.786;10.120;2023-07-24T04:48:22;17.80;97.10
11043;DHT22;5574;48.786;10.120;2023-07-24T04:50:53;17.90;96.80
11043;DHT22;5574;48.786;10.120;2023-07-24T04:53:21;17.90;96.50
11043;DHT22;5574;48.786;10.120;2023-07-24T04:55:48;17.90;96.80
11043;DHT22;5574;48.786;10.120;2023-07-24T04:58:14;18.00;96.80
11043;DHT22;5574;48.786;10.120;2023-07-24T05:00:41;18.10;96.60
11043;DHT22;5574;48.786;10.120;2023-07-24T05:03:08;18.10;96.50
11043;DHT22;5574;48.786;10.120;2023-07-24T05:05:36;18.20;96.50
11043;DHT22;5574;48.786;10.120;2023-07-24T05:08:04;18.30;96.10
11043;DHT22;5574;48.786;10.120;2023-07-24T05:10:36;18.30;96.20
11043;DHT22;5574;48.786;10.120;2023-07-24T05:13:02;18.40;96.20
11043;DHT22;5574;48.786;10.120;2023-07-24T05:15:29;18.40;95.80
11043;DHT22;5574;48.786;10.120;2023-07-24T05:17:56;18.30;95.90
11043;DHT22;5574;48.786;10.120;2023-07-24T05:20:22;18.30;95.90
11043;DHT22;5574;48.786;10.120;2023-07-24T05:22:49;18.30;95.90
11043;DHT22;5574;48.786;10.120;2023-07-24T05:25:16;18.40;96.10
11043;DHT22;5574;48.786;10.120;2023-07-24T05:27:44;18.50;96.00
11043;DHT22;5574;48.786;10.120;2023-07-24T05:30:10;18.50;96.10
11043;DHT22;5574;48.786;10.120;2023-07-24T05:32:37;18.50;96.30
11043;DHT22;5574;48.786;10.120;2023-07-24T05:35:04;18.50;96.40
11043;DHT22;5574;48.786;10.120;2023-07-24T05:37:31;18.50;96.40
11043;DHT22;5574;48.786;10.120;2023-07-24T05:39:58;18.60;96.80
11043;DHT22;5574;48.786;10.120;2023-07-24T05:42:25;18.60;96.80
11043;DHT22;5574;48.786;10.120;2023-07-24T05:44:53;18.70;96.70
11043;DHT22;5574;48.786;10.120;2023-07-24T05:47:19;18.80;96.30
11043;DHT22;5574;48.786;10.120;2023-07-24T05:49:46;18.90;96.50
11043;DHT22;5574;48.786;10.120;2023-07-24T05:52:13;19.00;96.30
11043;DHT22;5574;48.786;10.120;2023-07-24T05:54:39;19.10;96.30
11043;DHT22;5574;48.786;10.120;2023-07-24T05:57:06;19.10;96.40
11043;DHT22;5574;48.786;10.120;2023-07-24T05:59:33;19.20;96.30
11043;DHT22;5574;48.786;10.120;2023-07-24T06:02:01;19.30;96.70
11043;DHT22;5574;48.786;10.120;2023-07-24T06:04:27;19.40;96.60
11043;DHT22;5574;48.786;10.120;2023-07-24T06:06:54;19.50;96.50
11043;DHT22;5574;48.786;10.120;2023-07-24T06:09:21;19.50;96.60
11043;DHT22;5574;48.786;10.120;2023-07-24T06:11:48;19.60;96.70
11043;DHT22;5574;48.786;10.120;2023-07-24T06:14:14;19.70;96.80
11043;DHT22;5574;48.786;10.120;2023-07-24T06:16:41;19.70;96.90
11043;DHT22;5574;48.786;10.120;2023-07-24T06:19:09;19.90;96.70
11043;DHT22;5574;48.786;10.120;2023-07-24T06:21:36;19.90;96.90
11043;DHT22;5574;48.786;10.120;2023-07-24T06:24:02;20.10;96.80
11043;DHT22;5574;48.786;10.120;2023-07-24T06:26:29;20.20;96.50
11043;DHT22;5574;48.786;10.120;2023-07-24T06:28:56;20.40;96.40
11043;DHT22;5574;48.786;10.120;2023-07-24T06:31:23;20.60;95.90
11043;DHT22;5574;48.786;10.120;2023-07-24T06:33:50;20.70;95.70
11043;DHT22;5574;48.786;10.120;2023-07-24T06:36:17;20.80;95.60
11043;DHT22;5574;48.786;10.120;2023-07-24T06:38:44;20.80;95.50
11043;DHT22;5574;48.786;10.120;2023-07-24T06:41:13;20.80;95.20
11043;DHT22;5574;48.786;10.120;2023-07-24T06:43:40;20.90;95.50
11043;DHT22;5574;48.786;10.120;2023-07-24T06:46:07;20.80;95.20
11043;DHT22;5574;48.786;10.120;2023-07-24T06:48:34;20.90;95.20
11043;DHT22;5574;48.786;10.120;2023-07-24T06:51:00;20.90;95.60
11043;DHT22;5574;48.786;10.120;2023-07-24T06:53:28;21.00;95.30
11043;DHT22;5574;48.786;10.120;2023-07-24T06:55:55;21.00;95.50
11043;DHT22;5574;48.786;10.120;2023-07-24T06:58:22;20.90;95.50
11043;DHT22;5574;48.786;10.120;2023-07-24T07:00:48;21.00;95.40
11043;DHT22;5574;48.786;10.120;2023-07-24T07:03:15;20.90;95.70
11043;DHT22;5574;48.786;10.120;2023-07-24T07:05:42;20.90;95.70
11043;DHT22;5574;48.786;10.120;2023-07-24T07:08:08;21.00;95.90
11043;DHT22;5574;48.786;10.120;2023-07-24T07:10:36;20.90;96.00
11043;DHT22;5574;48.786;10.120;2023-07-24T07:13:03;21.00;96.10
11043;DHT22;5574;48.786;10.120;2023-07-24T07:15:30;21.00;96.20
11043;DHT22;5574;48.786;10.120;2023-07-24T07:17:56;21.00;96.20
11043;DHT22;5574;48.786;10.120;2023-07-24T07:20:23;21.00;96.30
11043;DHT22;5574;48.786;10.120;2023-07-24T07:22:50;21.00;96.40
11043;DHT22;5574;48.786;10.120;2023-07-24T07:25:16;21.00;96.60
11043;DHT22;5574;48.786;10.120;2023-07-24T07:27:44;21.00;96.80
11043;DHT22;5574;48.786;10.120;2023-07-24T07:30:11;21.00;96.60
11043;DHT22;5574;48.786;10.120;2023-07-24T07:32:38;21.00;96.80
11043;DHT22;5574;48.786;10.120;2023-07-24T07:35:06;21.10;96.70
11043;DHT22;5574;48.786;10.120;2023-07-24T07:37:32;21.10;96.90
11043;DHT22;5574;48.786;10.120;2023-07-24T07:39:59;21.10;96.90
11043;DHT22;5574;48.786;10.120;2023-07-24T07:42:26;21.20;97.20
11043;DHT22;5574;48.786;10.120;2023-07-24T07:44:54;21.20;98.00
11043;DHT22;5574;48.786;10.120;2023-07-24T07:47:20;21.20;97.80
11043;DHT22;5574;48.786;10.120;2023-07-24T07:49:47;21.20;97.50
11043;DHT22;5574;48.786;10.120;2023-07-24T07:52:14;21.20;97.40
11043;DHT22;5574;48.786;10.120;2023-07-24T07:54:46;21.30;97.40
11043;DHT22;5574;48.786;10.120;2023-07-24T07:57:12;21.30;97.30
11043;DHT22;5574;48.786;10.120;2023-07-24T07:59:39;21.20;96.90
11043;DHT22;5574;48.786;10.120;2023-07-24T08:02:07;21.30;97.40
11043;DHT22;5574;48.786;10.120;2023-07-24T08:04:34;21.30;97.40
11043;DHT22;5574;48.786;10.120;2023-07-24T08:07:01;21.40;97.50
11043;DHT22;5574;48.786;10.120;2023-07-24T08:09:28;21.50;97.20
11043;DHT22;5574;48.786;10.120;2023-07-24T08:11:54;21.60;97.10
11043;DHT22;5574;48.786;10.120;2023-07-24T08:14:21;21.60;97.00
11043;DHT22;5574;48.786;10.120;2023-07-24T08:16:48;21.80;97.20
11043;DHT22;5574;48.786;10.120;2023-07-24T08:19:16;22.00;97.10
11043;DHT22;5574;48.786;10.120;2023-07-24T08:21:42;22.00;96.90
11043;DHT22;5574;48.786;10.120;2023-07-24T08:24:10;22.00;96.40
11043;DHT22;5574;48.786;10.120;2023-07-24T08:26:36;22.00;96.60
11043;DHT22;5574;48.786;10.120;2023-07-24T08:29:04;22.00;96.50
11043;DHT22;5574;48.786;10.120;2023-07-24T08:31:30;22.10;96.40
11043;DHT22;5574;48.786;10.120;2023-07-24T08:33:57;22.10;96.60
11043;DHT22;5574;48.786;10.120;2023-07-24T08:36:25;22.20;96.70
11043;DHT22;5574;48.786;10.120;2023-07-24T08:38:52;22.20;96.30
11043;DHT22;5574;48.786;10.120;2023-07-24T08:41:18;22.30;96.10
11043;DHT22;5574;48.786;10.120;2023-07-24T08:43:45;22.40;96.00
11043;DHT22;5574;48.786;10.120;2023-07-24T08:46:12;22.50;95.90
11043;DHT22;5574;48.786;10.120;2023-07-24T08:48:40;22.60;95.70
11043;DHT22;5574;48.786;10.120;2023-07-24T08:51:08;22.70;95.80
11043;DHT22;5574;48.786;10.120;2023-07-24T08:53:37;22.80;95.40
11043;DHT22;5574;48.786;10.120;2023-07-24T08:56:05;23.00;95.30
11043;DHT22;5574;48.786;10.120;2023-07-24T08:58:33;23.30;94.70
11043;DHT22;5574;48.786;10.120;2023-07-24T09:01:01;23.70;94.50
11043;DHT22;5574;48.786;10.120;2023-07-24T09:03:28;24.00;93.80
11043;DHT22;5574;48.786;10.120;2023-07-24T09:05:55;24.00;91.80
11043;DHT22;5574;48.786;10.120;2023-07-24T09:08:31;24.00;92.00
11043;DHT22;5574;48.786;10.120;2023-07-24T09:10:59;24.10;91.20
11043;DHT22;5574;48.786;10.120;2023-07-24T09:13:27;24.30;90.00
11043;DHT22;5574;48.786;10.120;2023-07-24T09:15:54;24.30;90.50
11043;DHT22;5574;48.786;10.120;2023-07-24T09:18:21;24.60;90.30
11043;DHT22;5574;48.786;10.120;2023-07-24T09:20:48;24.80;89.60
11043;DHT22;5574;48.786;10.120;2023-07-24T09:23:16;24.70;89.80
11043;DHT22;5574;48.786;10.120;2023-07-24T09:25:51;24.50;88.80
11043;DHT22;5574;48.786;10.120;2023-07-24T09:28:19;24.50;89.20
11043;DHT22;5574;48.786;10.120;2023-07-24T09:30:52;24.60;89.30
11043;DHT22;5574;48.786;10.120;2023-07-24T09:33:18;24.40;89.10
11043;DHT22;5574;48.786;10.120;2023-07-24T09:35:55;24.40;90.10
11043;DHT22;5574;48.786;10.120;2023-07-24T09:38:22;24.40;90.20
11043;DHT22;5574;48.786;10.120;2023-07-24T09:40:49;24.30;90.10
11043;DHT22;5574;48.786;10.120;2023-07-24T09:43:21;24.20;90.40
11043;DHT22;5574;48.786;10.120;2023-07-24T09:45:49;24.00;90.80
11043;DHT22;5574;48.786;10.120;2023-07-24T09:48:17;23.80;90.90
11043;DHT22;5574;48.786;10.120;2023-07-24T09:50:46;23.70;91.20
11043;DHT22;5574;48.786;10.120;2023-07-24T09:53:18;23.50;91.40
11043;DHT22;5574;48.786;10.120;2023-07-24T09:55:51;23.30;92.00
11043;DHT22;5574;48.786;10.120;2023-07-24T09:58:21;23.10;92.50
11043;DHT22;5574;48.786;10.120;2023-07-24T10:00:49;22.90;93.60
11043;DHT22;5574;48.786;10.120;2023-07-24T10:03:16;22.70;93.80
11043;DHT22;5574;48.786;10.120;2023-07-24T10:05:44;22.60;94.60
11043;DHT22;5574;48.786;10.120;2023-07-24T10:08:11;22.50;94.50
11043;DHT22;5574;48.786;10.120;2023-07-24T10:10:38;22.40;95.80
11043;DHT22;5574;48.786;10.120;2023-07-24T10:13:05;22.30;96.10
11043;DHT22;5574;48.786;10.120;2023-07-24T10:15:34;22.10;95.80
11043;DHT22;5574;48.786;10.120;2023-07-24T10:18:02;22.00;96.60
11043;DHT22;5574;48.786;10.120;2023-07-24T10:20:33;21.90;98.00
11043;DHT22;5574;48.786;10.120;2023-07-24T10:23:01;21.80;97.90
11043;DHT22;5574;48.786;10.120;2023-07-24T10:25:29;21.70;98.40
11043;DHT22;5574;48.786;10.120;2023-07-24T10:28:01;21.60;98.60
11043;DHT22;5574;48.786;10.120;2023-07-24T10:30:31;21.50;98.80
11043;DHT22;5574;48.786;10.120;2023-07-24T10:33:05;21.40;98.90
11043;DHT22;5574;48.786;10.120;2023-07-24T10:35:40;21.20;99.90
11043;DHT22;5574;48.786;10.120;2023-07-24T10:38:07;21.20;99.90
11043;DHT22;5574;48.786;10.120;2023-07-24T10:40:34;21.10;99.90
11043;DHT22;5574;48.786;10.120;2023-07-24T10:43:04;21.10;99.90
11043;DHT22;5574;48.786;10.120;2023-07-24T10:45:47;21.00;99.90
11043;DHT22;5574;48.786;10.120;2023-07-24T10:48:16;20.90;99.90
11043;DHT22;5574;48.786;10.120;2023-07-24T10:50:44;20.90;99.90
11043;DHT22;5574;48.786;10.120;2023-07-24T10:53:14;20.80;99.90
11043;DHT22;5574;48.786;10.120;2023-07-24T10:55:42;20.80;99.90
11043;DHT22;5574;48.786;10.120;2023-07-24T10:58:09;20.80;99.90
11043;DHT22;5574;48.786;10.120;2023-07-24T11:00:36;20.80;99.90
11043;DHT22;5574;48.786;10.120;2023-07-24T11:03:03;20.80;99.90
11043;DHT22;5574;48.786;10.120;2023-07-24T11:05:31;20.80;99.90
11043;DHT22;5574;48.786;10.120;2023-07-24T11:07:59;20.80;99.90
11043;DHT22;5574;48.786;10.120;2023-07-24T11:10:25;20.80;99.90
11043;DHT22;5574;48.786;10.120;2023-07-24T11:12:52;20.70;99.90
11043;DHT22;5574;48.786;10.120;2023-07-24T11:15:24;20.80;99.90
11043;DHT22;5574;48.786;10.120;2023-07-24T11:17:52;20.80;99.90
11043;DHT22;5574;48.786;10.120;2023-07-24T11:20:19;20.80;99.90
11043;DHT22;5574;48.786;10.120;2023-07-24T11:22:47;20.80;99.90
11043;DHT22;5574;48.786;10.120;2023-07-24T11:25:14;20.70;99.90
11043;DHT22;5574;48.786;10.120;2023-07-24T11:27:41;20.70;99.90
11043;DHT22;5574;48.786;10.120;2023-07-24T11:30:10;20.60;99.90
11043;DHT22;5574;48.786;10.120;2023-07-24T11:32:39;20.60;99.90
11043;DHT22;5574;48.786;10.120;2023-07-24T11:35:07;20.60;99.90
11043;DHT22;5574;48.786;10.120;2023-07-24T11:37:34;20.60;99.90
11043;DHT22;5574;48.786;10.120;2023-07-24T11:40:04;20.50;99.90
11043;DHT22;5574;48.786;10.120;2023-07-24T11:42:37;20.40;99.90
11043;DHT22;5574;48.786;10.120;2023-07-24T11:45:05;20.40;99.90
11043;DHT22;5574;48.786;10.120;2023-07-24T11:47:41;20.30;99.90
11043;DHT22;5574;48.786;10.120;2023-07-24T11:50:08;20.20;99.90
11043;DHT22;5574;48.786;10.120;2023-07-24T11:52:39;20.20;99.90
11043;DHT22;5574;48.786;10.120;2023-07-24T11:55:08;20.10;99.90
11043;DHT22;5574;48.786;10.120;2023-07-24T11:57:35;20.10;99.90
11043;DHT22;5574;48.786;10.120;2023-07-24T12:00:03;20.00;99.90
11043;DHT22;5574;48.786;10.120;2023-07-24T12:02:32;20.10;99.90
11043;DHT22;5574;48.786;10.120;2023-07-24T12:04:59;20.10;99.90
11043;DHT22;5574;48.786;10.120;2023-07-24T12:07:31;20.20;99.90
11043;DHT22;5574;48.786;10.120;2023-07-24T12:09:59;20.20;99.90
11043;DHT22;5574;48.786;10.120;2023-07-24T12:12:37;20.40;99.90
11043;DHT22;5574;48.786;10.120;2023-07-24T12:15:04;20.40;99.90
11043;DHT22;5574;48.786;10.120;2023-07-24T12:17:31;20.50;99.90
11043;DHT22;5574;48.786;10.120;2023-07-24T12:19:57;20.50;99.90
11043;DHT22;5574;48.786;10.120;2023-07-24T12:22:24;20.70;99.90
11043;DHT22;5574;48.786;10.120;2023-07-24T12:24:51;21.00;99.90
11043;DHT22;5574;48.786;10.120;2023-07-24T12:27:17;21.20;99.90
11043;DHT22;5574;48.786;10.120;2023-07-24T12:29:45;21.50;99.90
11043;DHT22;5574;48.786;10.120;2023-07-24T12:32:12;21.70;99.90
11043;DHT22;5574;48.786;10.120;2023-07-24T12:34:39;21.80;99.90
11043;DHT22;5574;48.786;10.120;2023-07-24T12:37:05;22.00;99.90
11043;DHT22;5574;48.786;10.120;2023-07-24T12:39:32;22.20;99.90
11043;DHT22;5574;48.786;10.120;2023-07-24T12:41:59;22.40;99.90
11043;DHT22;5574;48.786;10.120;2023-07-24T12:44:25;22.70;99.90
11043;DHT22;5574;48.786;10.120;2023-07-24T12:46:53;22.90;99.90
11043;DHT22;5574;48.786;10.120;2023-07-24T12:49:20;22.80;99.90
11043;DHT22;5574;48.786;10.120;2023-07-24T12:51:47;22.70;99.90
11043;DHT22;5574;48.786;10.120;2023-07-24T12:54:14;22.70;99.90
11043;DHT22;5574;48.786;10.120;2023-07-24T12:56:41;22.60;99.90
11043;DHT22;5574;48.786;10.120;2023-07-24T12:59:07;22.50;99.90
11043;DHT22;5574;48.786;10.120;2023-07-24T13:01:34;22.60;99.90
11043;DHT22;5574;48.786;10.120;2023-07-24T13:04:02;22.50;99.90
11043;DHT22;5574;48.786;10.120;2023-07-24T13:06:29;22.50;99.90
11043;DHT22;5574;48.786;10.120;2023-07-24T13:08:56;22.50;99.90
11043;DHT22;5574;48.786;10.120;2023-07-24T13:11:22;22.50;99.90
11043;DHT22;5574;48.786;10.120;2023-07-24T13:13:49;22.50;99.90
11043;DHT22;5574;48.786;10.120;2023-07-24T13:16:16;22.50;99.90
11043;DHT22;5574;48.786;10.120;2023-07-24T13:18:43;22.60;99.60
11043;DHT22;5574;48.786;10.120;2023-07-24T13:21:11;22.70;99.50
11043;DHT22;5574;48.786;10.120;2023-07-24T13:23:39;22.90;99.90
11043;DHT22;5574;48.786;10.120;2023-07-24T13:26:06;22.90;99.20
11043;DHT22;5574;48.786;10.120;2023-07-24T13:28:34;23.00;98.40
11043;DHT22;5574;48.786;10.120;2023-07-24T13:31:11;22.90;98.80
11043;DHT22;5574;48.786;10.120;2023-07-24T13:33:38;22.90;98.10
11043;DHT22;5574;48.786;10.120;2023-07-24T13:36:04;22.90;98.60
11043;DHT22;5574;48.786;10.120;2023-07-24T13:38:32;22.90;98.50
11043;DHT22;5574;48.786;10.120;2023-07-24T13:40:59;22.80;98.30
11043;DHT22;5574;48.786;10.120;2023-07-24T13:43:26;22.70;98.20
11043;DHT22;5574;48.786;10.120;2023-07-24T13:45:53;22.50;97.90
11043;DHT22;5574;48.786;10.120;2023-07-24T13:48:19;22.50;98.10
11043;DHT22;5574;48.786;10.120;2023-07-24T13:50:46;22.60;98.60
11043;DHT22;5574;48.786;10.120;2023-07-24T13:53:13;22.80;99.50
11043;DHT22;5574;48.786;10.120;2023-07-24T13:55:41;23.00;99.30
11043;DHT22;5574;48.786;10.120;2023-07-24T13:58:08;23.00;98.50
11043;DHT22;5574;48.786;10.120;2023-07-24T14:00:35;23.10;98.70
11043;DHT22;5574;48.786;10.120;2023-07-24T14:03:01;23.20;98.20
11043;DHT22;5574;48.786;10.120;2023-07-24T14:05:28;23.30;98.30
11043;DHT22;5574;48.786;10.120;2023-07-24T14:07:55;23.20;97.90
11043;DHT22;5574;48.786;10.120;2023-07-24T14:10:21;23.00;98.00
11043;DHT22;5574;48.786;10.120;2023-07-24T14:12:49;22.80;97.70
11043;DHT22;5574;48.786;10.120;2023-07-24T14:15:16;22.60;98.50
11043;DHT22;5574;48.786;10.120;2023-07-24T14:17:43;22.60;98.20
11043;DHT22;5574;48.786;10.120;2023-07-24T14:20:10;22.40;97.90
11043;DHT22;5574;48.786;10.120;2023-07-24T14:22:37;22.30;98.30
11043;DHT22;5574;48.786;10.120;2023-07-24T14:25:04;22.20;98.90
11043;DHT22;5574;48.786;10.120;2023-07-24T14:27:31;22.20;99.10
11043;DHT22;5574;48.786;10.120;2023-07-24T14:29:59;22.20;98.60
11043;DHT22;5574;48.786;10.120;2023-07-24T14:32:26;22.20;99.10
11043;DHT22;5574;48.786;10.120;2023-07-24T14:34:53;22.10;99.30
11043;DHT22;5574;48.786;10.120;2023-07-24T14:37:19;22.00;99.90
11043;DHT22;5574;48.786;10.120;2023-07-24T14:39:46;22.00;99.90
11043;DHT22;5574;48.786;10.120;2023-07-24T14:42:13;21.90;99.90
11043;DHT22;5574;48.786;10.120;2023-07-24T14:44:41;21.90;99.90
11043;DHT22;5574;48.786;10.120;2023-07-24T14:47:09;21.80;99.90
11043;DHT22;5574;48.786;10.120;2023-07-24T14:49:36;21.90;99.90
11043;DHT22;5574;48.786;10.120;2023-07-24T14:52:03;21.90;99.90
11043;DHT22;5574;48.786;10.120;2023-07-24T14:54:29;21.80;99.90
11043;DHT22;5574;48.786;10.120;2023-07-24T14:56:57;21.60;99.90
11043;DHT22;5574;48.786;10.120;2023-07-24T14:59:24;21.50;99.90
11043;DHT22;5574;48.786;10.120;2023-07-24T15:01:51;21.50;99.90
11043;DHT22;5574;48.786;10.120;2023-07-24T15:04:19;21.50;99.90
11043;DHT22;5574;48.786;10.120;2023-07-24T15:06:46;21.50;99.90
11043;DHT22;5574;48.786;10.120;2023-07-24T15:09:12;21.50;99.90
11043;DHT22;5574;48.786;10.120;2023-07-24T15:11:39;21.40;99.90
11043;DHT22;5574;48.786;10.120;2023-07-24T15:14:06;21.40;99.90
11043;DHT22;5574;48.786;10.120;2023-07-24T15:16:32;21.30;99.90
11043;DHT22;5574;48.786;10.120;2023-07-24T15:18:59;21.30;99.90
11043;DHT22;5574;48.786;10.120;2023-07-24T15:21:27;21.30;99.90
11043;DHT22;5574;48.786;10.120;2023-07-24T15:23:54;21.20;99.90
11043;DHT22;5574;48.786;10.120;2023-07-24T15:26:20;21.20;99.90
11043;DHT22;5574;48.786;10.120;2023-07-24T15:28:47;21.20;99.90
11043;DHT22;5574;48.786;10.120;2023-07-24T15:31:14;21.20;99.90